createdAt,value
2022-07-29T00:00:23.256Z,20.42
2022-07-29T00:02:51.434Z,20.43
2022-07-29T00:05:19.570Z,20.30
2022-07-29T00:07:47.883Z,20.19
2022-07-29T00:10:16.017Z,20.09
2022-07-29T00:12:44.188Z,20.00
2022-07-29T00:15:13.815Z,19.97
2022-07-29T00:17:42.251Z,19.97
2022-07-29T00:20:11.536Z,19.89
2022-07-29T00:22:40.003Z,19.75
2022-07-29T00:25:08.688Z,19.62
2022-07-29T00:27:37.252Z,19.52
2022-07-29T00:30:06.116Z,19.46
2022-07-29T00:32:36.449Z,19.39
2022-07-29T00:35:22.322Z,19.30
2022-07-29T00:37:50.450Z,19.23
2022-07-29T00:40:18.646Z,19.17
2022-07-29T00:42:54.297Z,19.09
2022-07-29T00:45:22.971Z,18.96
2022-07-29T00:47:52.437Z,18.96
2022-07-29T00:50:20.690Z,18.84
2022-07-29T00:52:48.986Z,18.67
2022-07-29T00:55:18.415Z,18.53
2022-07-29T00:57:47.617Z,18.60
2022-07-29T01:00:19.391Z,18.63
2022-07-29T01:02:49.134Z,18.57
2022-07-29T01:05:24.943Z,18.44
2022-07-29T01:08:14.058Z,18.36
2022-07-29T01:10:43.799Z,18.46
2022-07-29T01:13:12.267Z,18.34
2022-07-29T01:15:49.105Z,18.29
2022-07-29T01:18:22.890Z,18.37
2022-07-29T01:21:12.163Z,18.34
2022-07-29T01:23:58.464Z,18.19
2022-07-29T01:26:40.630Z,18.10
2022-07-29T01:29:14.911Z,18.05
2022-07-29T01:31:59.054Z,18.13
2022-07-29T01:34:37.437Z,18.02
2022-07-29T01:37:15.126Z,17.90
2022-07-29T01:39:46.048Z,17.84
2022-07-29T01:42:21.689Z,17.79
2022-07-29T01:44:57.990Z,17.67
2022-07-29T01:47:33.486Z,17.65
2022-07-29T01:50:08.360Z,17.57
2022-07-29T01:52:40.279Z,17.52
2022-07-29T01:55:14.844Z,17.47
2022-07-29T01:57:47.651Z,17.44
2022-07-29T02:00:19.171Z,17.39
2022-07-29T02:02:49.266Z,17.36
2022-07-29T02:05:21.136Z,17.42
2022-07-29T02:07:51.554Z,17.41
2022-07-29T02:10:25.870Z,17.36
2022-07-29T02:12:57.004Z,17.31
2022-07-29T02:15:29.209Z,17.26
2022-07-29T02:18:01.392Z,17.18
2022-07-29T02:20:30.240Z,17.14
2022-07-29T02:23:00.671Z,17.11
2022-07-29T02:25:36.743Z,17.06
2022-07-29T02:28:07.740Z,17.02
2022-07-29T02:30:41.101Z,17.03
2022-07-29T02:33:11.814Z,17.07
2022-07-29T02:35:42.631Z,17.07
2022-07-29T02:38:31.476Z,17.18
2022-07-29T02:41:02.032Z,17.52
2022-07-29T02:43:32.517Z,18.00
2022-07-29T02:46:04.615Z,18.50
2022-07-29T02:48:45.983Z,18.82
2022-07-29T02:51:43.812Z,18.97
2022-07-29T02:54:11.416Z,18.99
2022-07-29T02:56:42.526Z,18.93
2022-07-29T02:59:13.518Z,18.92
2022-07-29T03:01:45.784Z,19.01
2022-07-29T03:04:15.190Z,19.02
2022-07-29T03:06:45.619Z,18.90
2022-07-29T03:09:15.247Z,18.91
2022-07-29T03:11:49.418Z,18.93
2022-07-29T03:14:20.288Z,18.79
2022-07-29T03:16:50.837Z,18.86
2022-07-29T03:19:19.951Z,18.81
2022-07-29T03:21:48.163Z,18.69
2022-07-29T03:24:29.845Z,18.63
2022-07-29T03:26:58.726Z,18.63
2022-07-29T03:29:33.450Z,18.60
2022-07-29T03:32:08.454Z,18.54
2022-07-29T03:34:38.383Z,18.66
2022-07-29T03:37:07.153Z,18.82
2022-07-29T03:39:40.635Z,18.79
2022-07-29T03:42:12.369Z,18.96
2022-07-29T03:44:42.847Z,18.97
2022-07-29T03:47:15.851Z,18.99
2022-07-29T03:49:46.405Z,18.85
2022-07-29T03:52:14.758Z,18.77
2022-07-29T03:54:42.947Z,18.65
2022-07-29T03:57:13.302Z,18.56
2022-07-29T03:59:42.205Z,18.46
2022-07-29T04:02:14.737Z,18.51
2022-07-29T04:04:43.822Z,18.46
2022-07-29T04:07:14.804Z,18.45
2022-07-29T04:09:43.630Z,18.51
2022-07-29T04:12:12.273Z,18.40
2022-07-29T04:14:40.868Z,18.21
2022-07-29T04:17:09.247Z,18.09
2022-07-29T04:19:38.653Z,18.01
2022-07-29T04:22:06.879Z,17.94
2022-07-29T04:24:34.983Z,17.92
2022-07-29T04:27:03.063Z,17.83
2022-07-29T04:29:31.253Z,17.76
2022-07-29T04:31:59.266Z,17.72
2022-07-29T04:34:27.952Z,17.69
2022-07-29T04:36:58.053Z,17.65
2022-07-29T04:39:29.655Z,17.60
2022-07-29T04:41:59.074Z,17.56
2022-07-29T04:44:29.185Z,17.50
2022-07-29T04:46:58.765Z,17.54
2022-07-29T04:49:26.915Z,17.59
2022-07-29T04:51:55.322Z,17.76
2022-07-29T04:54:24.837Z,17.89
2022-07-29T04:56:53.918Z,18.19
2022-07-29T04:59:22.063Z,18.35
2022-07-29T05:01:50.214Z,18.43
2022-07-29T05:04:18.776Z,18.56
2022-07-29T05:06:47.335Z,18.65
2022-07-29T05:09:15.483Z,18.80
2022-07-29T05:11:45.091Z,18.88
2022-07-29T05:14:13.269Z,18.97
2022-07-29T05:16:42.850Z,19.12
2022-07-29T05:19:14.439Z,19.24
2022-07-29T05:21:43.230Z,19.37
2022-07-29T05:24:11.296Z,19.49
2022-07-29T05:26:39.655Z,19.56
2022-07-29T05:29:43.187Z,19.65
2022-07-29T05:31:57.307Z,19.72
2022-07-29T05:34:26.009Z,19.81
2022-07-29T05:36:54.340Z,19.92
2022-07-29T05:39:22.518Z,20.02
2022-07-29T05:42:11.168Z,20.13
2022-07-29T05:44:41.081Z,20.28
2022-07-29T05:47:09.342Z,20.34
2022-07-29T05:49:37.638Z,20.42
2022-07-29T05:52:06.389Z,20.52
2022-07-29T05:54:34.542Z,20.62
2022-07-29T05:57:02.766Z,20.75
2022-07-29T05:59:30.931Z,20.86
2022-07-29T06:02:00.511Z,20.89
2022-07-29T06:04:28.759Z,21.08
2022-07-29T06:06:56.993Z,21.11
2022-07-29T06:09:25.210Z,21.30
2022-07-29T06:11:53.478Z,21.41
2022-07-29T06:14:21.716Z,21.44
2022-07-29T06:16:49.823Z,21.64
2022-07-29T06:19:19.514Z,21.88
2022-07-29T06:21:47.930Z,22.11
2022-07-29T06:24:17.931Z,22.29
2022-07-29T06:26:46.360Z,22.52
2022-07-29T06:29:14.466Z,22.72
2022-07-29T06:31:42.867Z,22.96
2022-07-29T06:34:11.001Z,23.12
2022-07-29T06:36:41.022Z,23.15
2022-07-29T06:39:11.037Z,23.51
2022-07-29T06:41:40.314Z,23.88
2022-07-29T06:44:11.448Z,24.60
2022-07-29T06:46:39.648Z,24.90
2022-07-29T06:49:07.978Z,25.08
2022-07-29T06:51:36.142Z,25.17
2022-07-29T06:54:06.588Z,25.16
2022-07-29T06:56:39.364Z,25.24
2022-07-29T06:59:10.150Z,25.81
2022-07-29T07:01:38.944Z,26.06
2022-07-29T07:04:07.607Z,25.87
2022-07-29T07:06:35.666Z,26.31
2022-07-29T07:09:05.777Z,26.15
2022-07-29T07:11:33.959Z,26.27
2022-07-29T07:14:03.974Z,26.31
2022-07-29T07:16:33.139Z,26.43
2022-07-29T07:19:01.488Z,26.60
2022-07-29T07:21:30.703Z,26.55
2022-07-29T07:23:59.889Z,26.54
2022-07-29T07:26:29.912Z,26.79
2022-07-29T07:28:58.169Z,26.54
2022-07-29T07:31:26.332Z,26.41
2022-07-29T07:33:55.249Z,26.17
2022-07-29T07:36:24.069Z,26.07
2022-07-29T07:38:52.222Z,26.46
2022-07-29T07:41:20.389Z,26.41
2022-07-29T07:43:50.110Z,25.85
2022-07-29T07:46:18.327Z,26.59
2022-07-29T07:48:46.458Z,27.04
2022-07-29T07:51:14.627Z,27.19
2022-07-29T07:53:42.706Z,27.33
2022-07-29T07:56:12.127Z,27.05
2022-07-29T07:58:41.075Z,26.65
2022-07-29T08:01:11.257Z,26.51
2022-07-29T08:03:40.181Z,26.12
2022-07-29T08:06:08.634Z,26.11
2022-07-29T08:08:37.896Z,25.99
2022-07-29T08:11:09.736Z,25.85
2022-07-29T08:13:39.276Z,26.62
2022-07-29T08:16:13.673Z,27.02
2022-07-29T08:18:45.073Z,27.04
2022-07-29T08:21:15.140Z,27.13
2022-07-29T08:23:57.659Z,26.37
2022-07-29T08:26:27.957Z,26.03
2022-07-29T08:28:56.085Z,26.44
2022-07-29T08:31:24.282Z,27.65
2022-07-29T08:33:53.911Z,28.73
2022-07-29T08:36:22.904Z,28.83
2022-07-29T08:38:51.885Z,29.90
2022-07-29T08:41:20.747Z,29.78
2022-07-29T08:43:49.352Z,29.43
2022-07-29T08:46:18.462Z,28.52
2022-07-29T08:48:46.979Z,28.88
2022-07-29T08:51:19.492Z,29.64
2022-07-29T08:53:50.496Z,29.99
2022-07-29T08:56:19.610Z,29.34
2022-07-29T08:58:51.663Z,29.76
2022-07-29T09:01:36.109Z,28.86
2022-07-29T09:04:13.374Z,27.75
2022-07-29T09:06:46.798Z,28.70
2022-07-29T09:09:15.623Z,29.01
2022-07-29T09:11:44.865Z,28.50
2022-07-29T09:14:15.147Z,28.82
2022-07-29T09:17:00.851Z,28.61
2022-07-29T09:19:30.970Z,28.13
2022-07-29T09:22:03.535Z,28.43
2022-07-29T09:24:45.656Z,28.44
2022-07-29T09:27:23.003Z,28.73
2022-07-29T09:30:01.192Z,29.33
2022-07-29T09:32:30.484Z,29.79
2022-07-29T09:35:17.947Z,29.90
2022-07-29T09:37:48.147Z,30.68
2022-07-29T09:40:18.476Z,30.79
2022-07-29T09:42:47.241Z,31.43
2022-07-29T09:45:29.025Z,29.67
2022-07-29T09:47:59.894Z,31.45
2022-07-29T09:50:38.641Z,31.85
2022-07-29T09:53:10.270Z,31.46
2022-07-29T09:55:49.224Z,31.44
2022-07-29T09:58:18.249Z,31.36
2022-07-29T10:00:46.920Z,31.80
2022-07-29T10:03:16.584Z,32.20
2022-07-29T10:05:46.261Z,32.13
2022-07-29T10:08:15.802Z,30.80
2022-07-29T10:10:45.483Z,29.75
2022-07-29T10:13:16.647Z,30.39
2022-07-29T10:15:47.224Z,30.80
2022-07-29T10:18:18.222Z,30.01
2022-07-29T10:20:46.880Z,30.06
2022-07-29T10:23:16.690Z,30.97
2022-07-29T10:25:46.562Z,31.31
2022-07-29T10:28:16.781Z,31.80
2022-07-29T10:30:46.878Z,32.87
2022-07-29T10:33:37.792Z,32.26
2022-07-29T10:36:27.436Z,32.47
2022-07-29T10:39:07.332Z,32.25
2022-07-29T10:42:08.048Z,31.82
2022-07-29T10:44:41.337Z,31.42
2022-07-29T10:47:09.575Z,31.48
2022-07-29T10:49:41.208Z,31.40
2022-07-29T10:52:10.390Z,31.90
2022-07-29T10:54:45.958Z,32.29
2022-07-29T10:57:26.001Z,32.41
2022-07-29T11:00:34.091Z,31.77
2022-07-29T11:08:45.701Z,31.90
2022-07-29T11:11:44.094Z,32.34
2022-07-29T11:14:20.091Z,32.81
2022-07-29T11:17:06.915Z,32.61
2022-07-29T11:19:40.123Z,32.50
2022-07-29T11:22:11.831Z,32.32
2022-07-29T11:24:50.449Z,32.76
2022-07-29T11:27:23.003Z,32.98
2022-07-29T11:29:56.705Z,32.95
2022-07-29T11:32:29.469Z,33.10
2022-07-29T11:35:17.508Z,32.61
2022-07-29T11:37:52.547Z,32.20
2022-07-29T11:40:25.997Z,31.68
2022-07-29T11:42:55.461Z,31.87
2022-07-29T11:45:43.164Z,31.94
2022-07-29T11:48:32.054Z,31.97
2022-07-29T11:51:02.980Z,32.06
2022-07-29T11:53:32.783Z,31.85
2022-07-29T11:56:02.731Z,32.66
2022-07-29T11:58:33.627Z,33.46
2022-07-29T12:01:04.881Z,33.30
2022-07-29T12:06:22.461Z,34.30
2022-07-29T12:08:50.595Z,33.15
2022-07-29T12:11:21.580Z,33.04
2022-07-29T12:13:52.435Z,33.72
2022-07-29T12:16:25.518Z,33.69
2022-07-29T12:19:02.280Z,34.25
2022-07-29T12:21:31.001Z,34.32
2022-07-29T12:24:08.750Z,34.53
2022-07-29T12:26:37.977Z,34.66
2022-07-29T12:29:20.003Z,34.08
2022-07-29T12:31:48.948Z,33.98
2022-07-29T12:34:18.183Z,33.87
2022-07-29T12:36:46.517Z,33.89
2022-07-29T12:39:14.826Z,34.13
2022-07-29T12:41:43.038Z,34.67
2022-07-29T12:44:13.032Z,33.97
2022-07-29T12:46:41.214Z,34.39
2022-07-29T12:49:09.969Z,34.56
2022-07-29T12:51:40.198Z,34.12
2022-07-29T12:54:11.375Z,33.61
2022-07-29T12:56:44.562Z,33.30
2022-07-29T12:59:16.811Z,34.09
2022-07-29T13:01:47.930Z,33.95
2022-07-29T13:04:27.397Z,33.80
2022-07-29T13:07:02.284Z,34.19
2022-07-29T13:09:40.405Z,34.51
2022-07-29T13:12:11.139Z,34.18
2022-07-29T13:14:42.375Z,34.27
2022-07-29T13:17:12.355Z,34.30
2022-07-29T13:19:42.216Z,33.15
2022-07-29T13:22:11.119Z,33.17
2022-07-29T13:24:49.441Z,33.28
2022-07-29T13:27:18.106Z,33.39
2022-07-29T13:29:48.041Z,33.05
2022-07-29T13:32:16.531Z,33.06
2022-07-29T13:34:44.705Z,33.29
2022-07-29T13:37:12.930Z,33.39
2022-07-29T13:39:41.097Z,32.67
2022-07-29T13:42:11.074Z,32.12
2022-07-29T13:44:39.470Z,32.17
2022-07-29T13:47:09.638Z,33.58
2022-07-29T13:49:37.786Z,34.68
2022-07-29T13:52:08.206Z,34.64
2022-07-29T13:54:42.107Z,34.12
2022-07-29T13:57:11.520Z,33.36
2022-07-29T13:59:40.112Z,32.89
2022-07-29T14:02:10.922Z,32.43
2022-07-29T14:04:39.686Z,32.61
2022-07-29T14:07:09.171Z,31.80
2022-07-29T14:09:41.326Z,31.74
2022-07-29T14:12:10.574Z,31.19
2022-07-29T14:14:38.735Z,31.16
2022-07-29T14:17:08.172Z,30.73
2022-07-29T14:19:39.130Z,30.77
2022-07-29T14:22:09.385Z,30.65
2022-07-29T14:24:38.031Z,30.52
2022-07-29T14:27:06.767Z,30.56
2022-07-29T14:29:37.817Z,31.37
2022-07-29T14:32:07.877Z,32.31
2022-07-29T14:34:38.634Z,32.01
2022-07-29T14:37:07.610Z,31.87
2022-07-29T14:39:42.864Z,31.78
2022-07-29T14:42:12.719Z,31.56
2022-07-29T14:44:42.105Z,31.79
2022-07-29T14:47:10.650Z,31.32
2022-07-29T14:49:40.103Z,31.47
2022-07-29T14:52:08.207Z,31.76
2022-07-29T14:54:36.322Z,31.43
2022-07-29T14:57:04.547Z,31.28
2022-07-29T14:59:32.713Z,31.03
2022-07-29T15:02:01.331Z,30.80
2022-07-29T15:04:29.951Z,30.81
2022-07-29T15:06:59.401Z,30.80
2022-07-29T15:09:27.653Z,30.69
2022-07-29T15:11:56.150Z,30.55
2022-07-29T15:14:24.458Z,30.27
2022-07-29T15:16:52.714Z,30.32
2022-07-29T15:19:21.451Z,30.62
2022-07-29T15:21:49.484Z,30.79
2022-07-29T15:24:19.292Z,31.21
2022-07-29T15:26:48.405Z,31.28
2022-07-29T15:29:17.059Z,31.40
2022-07-29T15:31:45.397Z,31.25
2022-07-29T15:34:13.614Z,31.21
2022-07-29T15:36:52.085Z,31.35
2022-07-29T15:39:23.540Z,31.06
2022-07-29T15:41:52.073Z,30.80
2022-07-29T15:44:21.308Z,30.67
2022-07-29T15:47:05.045Z,31.02
2022-07-29T15:49:47.133Z,30.67
2022-07-29T15:52:25.039Z,30.47
2022-07-29T15:54:56.173Z,30.28
2022-07-29T15:57:24.897Z,30.19
2022-07-29T15:59:53.312Z,29.94
2022-07-29T16:02:21.809Z,30.14
2022-07-29T16:04:49.955Z,30.09
2022-07-29T16:07:18.147Z,30.26
2022-07-29T16:09:51.024Z,30.13
2022-07-29T16:12:22.462Z,30.42
2022-07-29T16:14:51.180Z,30.63
2022-07-29T16:17:19.602Z,30.68
2022-07-29T16:19:47.929Z,30.97
2022-07-29T16:22:16.478Z,31.33
2022-07-29T16:24:44.620Z,31.38
2022-07-29T16:27:12.751Z,31.71
2022-07-29T16:29:42.282Z,31.83
2022-07-29T16:32:10.605Z,32.01
2022-07-29T16:34:38.965Z,31.19
2022-07-29T16:37:07.038Z,30.45
2022-07-29T16:39:35.208Z,29.92
2022-07-29T16:42:05.427Z,29.44
2022-07-29T16:44:34.875Z,28.73
2022-07-29T16:47:05.621Z,28.73
2022-07-29T16:49:33.724Z,28.35
2022-07-29T16:52:01.957Z,28.16
2022-07-29T16:54:29.980Z,27.70
2022-07-29T16:57:00.594Z,27.69
2022-07-29T16:59:29.719Z,27.54
2022-07-29T17:01:58.068Z,27.37
2022-07-29T17:04:29.118Z,26.86
2022-07-29T17:06:57.662Z,26.54
2022-07-29T17:09:26.275Z,26.43
2022-07-29T17:11:55.729Z,26.33
2022-07-29T17:14:25.551Z,26.02
2022-07-29T17:17:01.054Z,25.95
2022-07-29T17:19:32.810Z,25.84
2022-07-29T17:22:09.502Z,26.04
2022-07-29T17:24:40.980Z,25.95
2022-07-29T17:27:09.660Z,25.51
2022-07-29T17:29:38.608Z,25.49
2022-07-29T17:32:08.063Z,25.27
2022-07-29T17:34:38.298Z,25.23
2022-07-29T17:37:07.950Z,25.17
2022-07-29T17:39:36.078Z,25.14
2022-07-29T17:42:04.895Z,25.03
2022-07-29T17:44:36.430Z,25.23
2022-07-29T17:47:05.706Z,25.27
2022-07-29T17:49:37.514Z,25.35
2022-07-29T17:52:06.258Z,24.87
2022-07-29T17:54:34.543Z,24.81
2022-07-29T17:57:02.750Z,24.70
2022-07-29T17:59:30.850Z,24.65
2022-07-29T18:01:59.048Z,24.46
2022-07-29T18:04:28.558Z,24.40
2022-07-29T18:06:58.002Z,24.59
2022-07-29T18:09:26.273Z,24.61
2022-07-29T18:11:54.413Z,24.53
2022-07-29T18:14:22.662Z,24.39
2022-07-29T18:16:50.992Z,24.27
2022-07-29T18:19:19.121Z,24.22
2022-07-29T18:21:54.651Z,24.20
2022-07-29T18:24:27.483Z,24.09
2022-07-29T18:26:56.525Z,23.98
2022-07-29T18:29:24.887Z,23.93
2022-07-29T18:31:53.013Z,23.94
2022-07-29T18:34:21.132Z,23.87
2022-07-29T18:36:49.323Z,23.74
2022-07-29T18:39:19.702Z,23.63
2022-07-29T18:41:51.614Z,23.56
2022-07-29T18:44:22.072Z,23.61
2022-07-29T18:46:52.174Z,23.59
2022-07-29T18:49:20.651Z,23.64
2022-07-29T18:51:49.332Z,23.58
2022-07-29T18:54:18.339Z,23.54
2022-07-29T18:56:47.422Z,23.55
2022-07-29T18:59:20.122Z,23.58
2022-07-29T19:01:48.820Z,23.65
2022-07-29T19:04:17.278Z,23.62
2022-07-29T19:06:45.713Z,23.48
2022-07-29T19:09:14.085Z,23.43
2022-07-29T19:11:42.212Z,23.39
2022-07-29T19:14:10.486Z,23.35
2022-07-29T19:16:39.946Z,23.35
2022-07-29T19:19:08.874Z,23.29
2022-07-29T19:21:37.155Z,23.31
2022-07-29T19:24:07.851Z,23.24
2022-07-29T19:26:43.797Z,23.15
2022-07-29T19:29:11.883Z,22.99
2022-07-29T19:31:41.543Z,22.89
2022-07-29T19:34:10.317Z,22.72
2022-07-29T19:36:38.722Z,22.58
2022-07-29T19:39:06.851Z,22.46
2022-07-29T19:41:34.977Z,22.49
2022-07-29T19:44:03.215Z,22.31
2022-07-29T19:46:31.481Z,22.19
2022-07-29T19:49:01.106Z,22.11
2022-07-29T19:51:29.089Z,21.95
2022-07-29T19:53:57.234Z,21.85
2022-07-29T19:56:27.180Z,21.91
2022-07-29T19:58:57.274Z,22.03
2022-07-29T20:01:25.990Z,22.11
2022-07-29T20:03:54.787Z,22.31
2022-07-29T20:06:24.294Z,22.34
2022-07-29T20:08:56.776Z,22.41
2022-07-29T20:11:27.304Z,22.35
2022-07-29T20:13:55.427Z,22.27
2022-07-29T20:16:23.656Z,22.21
2022-07-29T20:18:53.774Z,22.15
2022-07-29T20:21:21.961Z,22.16
2022-07-29T20:23:51.469Z,22.18
2022-07-29T20:26:19.436Z,22.11
2022-07-29T20:28:49.412Z,22.02
2022-07-29T20:31:18.752Z,21.94
2022-07-29T20:33:46.960Z,21.84
2022-07-29T20:36:15.763Z,21.78
2022-07-29T20:38:43.937Z,21.69
2022-07-29T20:41:13.451Z,21.59
2022-07-29T20:43:41.384Z,21.45
2022-07-29T20:46:10.008Z,21.38
2022-07-29T20:48:39.571Z,21.27
2022-07-29T20:51:08.294Z,21.05
2022-07-29T20:53:38.227Z,21.02
2022-07-29T20:56:07.482Z,21.01
2022-07-29T20:58:38.089Z,20.77
2022-07-29T21:01:07.569Z,20.72
2022-07-29T21:03:35.513Z,20.64
2022-07-29T21:06:03.759Z,20.59
2022-07-29T21:08:32.049Z,20.52
2022-07-29T21:11:00.125Z,20.41
2022-07-29T21:13:28.306Z,20.52
2022-07-29T21:16:02.021Z,20.40
2022-07-29T21:18:36.876Z,20.34
2022-07-29T21:21:06.275Z,20.27
2022-07-29T21:23:34.921Z,20.21
2022-07-29T21:26:03.095Z,20.12
2022-07-29T21:28:36.540Z,20.09
2022-07-29T21:31:07.796Z,20.01
2022-07-29T21:33:36.373Z,19.88
2022-07-29T21:38:53.859Z,19.82
2022-07-29T21:41:22.364Z,19.73
2022-07-29T21:43:50.404Z,19.68
2022-07-29T21:46:20.680Z,19.67
2022-07-29T21:48:52.679Z,19.71
2022-07-29T21:51:20.838Z,19.62
2022-07-29T21:53:50.487Z,19.71
2022-07-29T21:56:21.419Z,19.67
2022-07-29T21:58:52.657Z,19.68
2022-07-29T22:01:22.210Z,19.67
2022-07-29T22:03:50.247Z,19.78
2022-07-29T22:06:18.599Z,19.78
2022-07-29T22:08:47.804Z,19.74
2022-07-29T22:11:16.205Z,19.74
2022-07-29T22:13:44.351Z,19.72
2022-07-29T22:16:14.814Z,19.77
2022-07-29T22:18:46.911Z,19.70
2022-07-29T22:21:15.196Z,19.68
2022-07-29T22:23:43.494Z,19.65
2022-07-29T22:26:11.744Z,19.59
2022-07-29T22:28:39.904Z,19.61
2022-07-29T22:31:08.828Z,19.63
2022-07-29T22:33:37.090Z,19.72
2022-07-29T22:36:07.410Z,19.71
2022-07-29T22:38:35.604Z,19.76
2022-07-29T22:41:03.802Z,19.77
2022-07-29T22:43:31.899Z,19.74
2022-07-29T22:46:00.305Z,19.70
2022-07-29T22:48:28.569Z,19.70
2022-07-29T22:50:56.662Z,19.62
2022-07-29T22:53:26.074Z,19.59
2022-07-29T22:55:54.564Z,19.57
2022-07-29T22:58:22.681Z,19.57
2022-07-29T23:00:50.909Z,19.55
2022-07-29T23:03:19.076Z,19.61
2022-07-29T23:05:47.222Z,19.67
2022-07-29T23:08:15.274Z,19.70
2022-07-29T23:10:44.868Z,19.70
2022-07-29T23:13:12.939Z,19.76
2022-07-29T23:15:41.336Z,19.65
2022-07-29T23:18:09.574Z,19.50
2022-07-29T23:20:37.695Z,19.48
2022-07-29T23:23:05.794Z,19.40
2022-07-29T23:25:33.885Z,19.34
2022-07-29T23:28:03.448Z,19.27
2022-07-29T23:30:31.633Z,19.23
2022-07-29T23:32:59.804Z,19.13
2022-07-29T23:35:28.414Z,19.04
2022-07-29T23:37:56.554Z,18.96
2022-07-29T23:40:24.834Z,18.87
2022-07-29T23:42:53.011Z,18.80
2022-07-29T23:45:22.511Z,18.76
2022-07-29T23:48:08.070Z,18.73
2022-07-29T23:50:36.193Z,18.68
2022-07-29T23:53:04.572Z,18.60
2022-07-29T23:55:37.332Z,18.55
2022-07-29T23:58:07.271Z,18.54
